Time;durP1;ratioP1;P1;durP2;ratioP2;P2;SDS_P1;SDS_P2;PMS_P1;PMS_P2;Temp;Humidity;BMP_temperature;BMP_pressure;BME280_temperature;BME280_humidity;BME280_pressure;Samples;Min_cycle;Max_cycle;Signal;HPM_P1;HPM_P2
2023/03/14 00:01:33;;;;;;;4.22;2.80;;;;;;;5.49;100.00;96252.72;4897923;29;20052;-90
2023/03/14 00:03:59;;;;;;;4.35;3.40;;;;;;;5.25;100.00;96247.56;4895429;29;20051;-89
2023/03/14 00:06:28;;;;;;;2.92;2.38;;;;;;;5.22;100.00;96253.22;4895654;29;20040;-89
2023/03/14 00:08:54;;;;;;;3.60;2.72;;;;;;;5.10;100.00;96263.63;4891601;29;20048;-89
2023/03/14 00:11:21;;;;;;;5.07;3.17;;;;;;;4.93;100.00;96272.13;4889442;29;20071;-88
2023/03/14 00:13:50;;;;;;;4.53;3.13;;;;;;;5.05;100.00;96266.91;4890489;29;20045;-90
2023/03/14 00:16:16;;;;;;;4.95;2.90;;;;;;;5.02;100.00;96269.19;4932033;29;20053;-90
2023/03/14 00:18:42;;;;;;;4.32;2.75;;;;;;;4.98;100.00;96269.63;4905386;29;20518;-91
2023/03/14 00:21:09;;;;;;;4.60;3.00;;;;;;;5.06;100.00;96278.09;4923265;29;20067;-90
2023/03/14 00:23:37;;;;;;;3.75;2.63;;;;;;;5.19;100.00;96298.69;4919852;29;20040;-89
2023/03/14 00:26:14;;;;;;;4.43;2.80;;;;;;;5.18;100.00;96298.88;4921944;29;20044;-88
2023/03/14 00:28:41;;;;;;;3.55;2.75;;;;;;;5.15;100.00;96300.16;4923206;29;20115;-87
2023/03/14 00:31:08;;;;;;;5.13;2.70;;;;;;;4.99;100.00;96306.81;4909048;29;20047;-90
2023/03/14 00:33:34;;;;;;;6.05;3.38;;;;;;;5.10;100.00;96308.63;4909417;29;20491;-88
2023/03/14 00:36:05;;;;;;;3.78;2.80;;;;;;;5.29;100.00;96316.31;4921729;29;20119;-90
2023/03/14 00:38:32;;;;;;;3.67;2.55;;;;;;;5.40;100.00;96322.50;4910526;29;20054;-89
2023/03/14 00:40:58;;;;;;;5.88;3.13;;;;;;;5.25;100.00;96336.00;4923966;29;20067;-91
2023/03/14 00:43:24;;;;;;;3.58;2.40;;;;;;;4.97;100.00;96340.03;4885748;29;20044;-90
2023/03/14 00:45:51;;;;;;;5.32;3.17;;;;;;;5.19;100.00;96342.88;4891400;29;20119;-87
2023/03/14 00:48:18;;;;;;;4.65;3.22;;;;;;;5.14;100.00;96350.56;4886996;29;20065;-89
2023/03/14 00:50:43;;;;;;;5.30;3.10;;;;;;;5.21;100.00;96345.25;4923171;29;20048;-89
2023/03/14 00:53:09;;;;;;;4.68;2.83;;;;;;;5.10;100.00;96352.03;4918019;29;20126;-88
2023/03/14 00:55:42;;;;;;;5.40;3.15;;;;;;;4.85;100.00;96363.41;4930249;29;20040;-91
2023/03/14 00:58:09;;;;;;;4.15;2.70;;;;;;;4.78;100.00;96367.94;4935365;29;20059;-90
2023/03/14 01:00:35;;;;;;;4.70;2.72;;;;;;;5.06;100.00;96376.91;4918608;29;20040;-90
2023/03/14 01:03:01;;;;;;;8.52;3.00;;;;;;;5.14;100.00;96382.56;4910717;29;20135;-90
2023/03/14 01:05:27;;;;;;;5.25;2.97;;;;;;;5.15;100.00;96389.34;4893591;29;20056;-90
2023/03/14 01:07:53;;;;;;;3.95;2.70;;;;;;;4.84;100.00;96400.81;4918587;29;20064;-87
2023/03/14 01:10:18;;;;;;;5.43;2.85;;;;;;;4.79;100.00;96398.88;4936024;29;20040;-89
2023/03/14 01:12:44;;;;;;;6.57;3.10;;;;;;;4.57;100.00;96409.00;4921292;29;20080;-90
2023/03/14 01:15:10;;;;;;;8.38;2.90;;;;;;;4.66;100.00;96415.47;4926429;29;20063;-90
2023/03/14 01:17:37;;;;;;;9.93;3.42;;;;;;;4.72;100.00;96419.78;4896067;29;20057;-90
2023/03/14 01:20:04;;;;;;;7.15;3.47;;;;;;;4.71;100.00;96438.97;4927106;29;20055;-90
2023/03/14 01:22:30;;;;;;;5.35;2.92;;;;;;;4.63;100.00;96441.13;4916426;29;20404;-90
2023/03/14 01:24:56;;;;;;;6.53;3.13;;;;;;;4.38;100.00;96445.41;4928312;29;20048;-88
2023/03/14 01:27:21;;;;;;;3.30;2.40;;;;;;;4.18;100.00;96457.84;4918231;29;20046;-90
2023/03/14 01:29:47;;;;;;;4.07;2.25;;;;;;;4.28;100.00;96458.09;4936378;29;20058;-90
2023/03/14 01:32:13;;;;;;;5.47;2.13;;;;;;;4.12;100.00;96469.88;4907528;29;20100;-90
2023/03/14 01:34:57;;;;;;;7.68;2.65;;;;;;;4.17;100.00;96464.03;4913012;29;20100;-89
2023/03/14 01:37:41;;;;;;;6.55;2.70;;;;;;;4.16;100.00;96476.22;4889098;29;20048;-89
2023/03/14 01:40:25;;;;;;;7.53;2.78;;;;;;;4.26;100.00;96475.72;4927006;29;20050;-90
2023/03/14 01:43:16;;;;;;;5.07;2.50;;;;;;;4.37;100.00;96492.38;4930827;29;20112;-90
2023/03/14 01:46:03;;;;;;;8.27;4.03;;;;;;;4.11;100.00;96500.22;4915653;29;20048;-90
2023/03/14 01:49:01;;;;;;;4.22;2.47;;;;;;;3.77;100.00;96512.75;4919026;29;20099;-89
2023/03/14 01:51:51;;;;;;;13.38;2.97;;;;;;;3.79;100.00;96508.13;4920477;29;20087;-90
2023/03/14 01:54:38;;;;;;;5.55;2.35;;;;;;;3.98;100.00;96508.16;4918419;29;20054;-89
2023/03/14 01:57:29;;;;;;;7.35;3.67;;;;;;;4.14;100.00;96517.19;4919962;29;20039;-88
2023/03/14 02:00:19;;;;;;;5.30;2.55;;;;;;;4.23;100.00;96525.47;4910202;29;20055;-90
2023/03/14 02:03:10;;;;;;;13.80;3.45;;;;;;;3.85;100.00;96524.66;4926887;29;20407;-90
2023/03/14 02:06:01;;;;;;;13.13;3.33;;;;;;;4.10;100.00;96527.19;4926107;29;20131;-90
2023/03/14 02:08:48;;;;;;;9.88;3.20;;;;;;;3.93;100.00;96534.75;4909567;29;20043;-89
2023/03/14 02:11:32;;;;;;;9.57;3.47;;;;;;;3.84;100.00;96539.41;4906497;29;20110;-89
2023/03/14 02:14:30;;;;;;;7.70;3.22;;;;;;;3.86;100.00;96540.00;4909217;29;20048;-88
2023/03/14 02:17:17;;;;;;;6.65;3.70;;;;;;;3.99;100.00;96552.06;4919746;29;20100;-88
2023/03/14 02:20:13;;;;;;;12.27;4.13;;;;;;;3.72;100.00;96560.06;4913534;29;20061;-89
2023/03/14 02:22:57;;;;;;;8.20;3.33;;;;;;;4.10;100.00;96560.94;4922346;29;20047;-89
2023/03/14 02:25:47;;;;;;;10.93;3.05;;;;;;;4.07;100.00;96574.34;4915744;29;20570;-89
2023/03/14 02:28:32;;;;;;;9.00;2.70;;;;;;;3.80;100.00;96574.59;4917177;29;20109;-89
2023/03/14 02:31:17;;;;;;;9.07;2.78;;;;;;;3.53;100.00;96587.72;4908454;29;20052;-88
2023/03/14 02:34:02;;;;;;;5.95;2.80;;;;;;;3.75;100.00;96595.19;4900946;29;20050;-89
2023/03/14 02:36:47;;;;;;;14.63;3.30;;;;;;;3.73;100.00;96607.56;4934044;29;20463;-89
2023/03/14 02:39:41;;;;;;;3.72;2.58;;;;;;;3.67;100.00;96611.00;4896587;29;20458;-89
2023/03/14 02:42:25;;;;;;;10.00;2.88;;;;;;;3.88;100.00;96603.88;4897053;29;20111;-89
2023/03/14 02:45:09;;;;;;;7.80;3.75;;;;;;;3.66;100.00;96619.78;4908751;29;20100;-88
2023/03/14 02:48:00;;;;;;;7.68;2.88;;;;;;;3.70;100.00;96623.56;4911041;29;20039;-88
2023/03/14 02:50:46;;;;;;;14.10;3.03;;;;;;;3.60;100.00;96624.00;4893645;29;20044;-90
2023/03/14 02:53:33;;;;;;;11.38;2.90;;;;;;;3.34;100.00;96640.50;4894788;29;20070;-90
2023/03/14 02:56:17;;;;;;;6.43;2.65;;;;;;;3.14;100.00;96656.94;4922620;29;20084;-90
2023/03/14 02:59:05;;;;;;;8.45;3.03;;;;;;;3.35;100.00;96662.88;4908225;29;20096;-89
2023/03/14 03:01:49;;;;;;;9.55;3.22;;;;;;;3.03;100.00;96675.75;4905407;29;20060;-91
2023/03/14 03:04:33;;;;;;;8.70;3.78;;;;;;;3.11;100.00;96688.47;4906664;29;20083;-89
2023/03/14 03:07:17;;;;;;;10.60;3.15;;;;;;;3.15;100.00;96694.88;4898318;29;20065;-90
2023/03/14 03:10:01;;;;;;;11.45;3.28;;;;;;;3.35;100.00;96709.56;4942480;29;20067;-90
2023/03/14 03:12:45;;;;;;;11.27;3.00;;;;;;;3.38;100.00;96709.91;4926735;29;20047;-90
2023/03/14 03:15:29;;;;;;;8.15;2.83;;;;;;;3.17;100.00;96723.16;4925868;29;20058;-91
2023/03/14 03:18:14;;;;;;;10.93;3.40;;;;;;;3.23;100.00;96719.75;4921819;29;20092;-91
2023/03/14 03:21:03;;;;;;;6.97;2.83;;;;;;;3.38;100.00;96740.25;4926128;29;20067;-90
2023/03/14 03:23:47;;;;;;;19.17;5.50;;;;;;;3.28;100.00;96736.28;4914059;29;20108;-88
2023/03/14 03:26:31;;;;;;;16.27;4.82;;;;;;;3.52;100.00;96736.59;4909229;29;20167;-90
2023/03/14 03:29:15;;;;;;;15.00;4.03;;;;;;;3.35;100.00;96735.47;4906503;29;20547;-87
2023/03/14 03:31:59;;;;;;;13.57;3.40;;;;;;;3.28;100.00;96741.47;4908801;29;20051;-89
2023/03/14 03:34:43;;;;;;;15.15;4.25;;;;;;;3.46;100.00;96752.97;4916006;29;20047;-87
2023/03/14 03:37:29;;;;;;;8.95;3.50;;;;;;;3.50;100.00;96764.53;4907586;29;20063;-87
2023/03/14 03:40:13;;;;;;;6.50;3.00;;;;;;;3.29;100.00;96788.94;4910101;29;20124;-88
2023/03/14 03:42:57;;;;;;;11.38;2.97;;;;;;;3.21;100.00;96792.56;4907749;29;20066;-89
2023/03/14 03:45:41;;;;;;;7.28;2.80;;;;;;;3.38;100.00;96798.09;4909315;29;20518;-89
2023/03/14 03:48:25;;;;;;;15.27;3.13;;;;;;;3.49;100.00;96809.63;4907639;29;20510;-89
2023/03/14 03:51:16;;;;;;;17.08;3.22;;;;;;;3.21;100.00;96813.28;4911532;29;20047;-88
2023/03/14 03:53:59;;;;;;;13.13;3.20;;;;;;;3.26;100.00;96820.47;4921159;29;20123;-87
2023/03/14 03:56:43;;;;;;;16.25;3.63;;;;;;;3.49;100.00;96830.38;4894167;29;20047;-88
2023/03/14 03:59:27;;;;;;;27.63;4.63;;;;;;;3.22;100.00;96840.81;4907648;29;20159;-88
2023/03/14 04:02:11;;;;;;;107.90;9.45;;;;;;;3.04;100.00;96856.97;4920001;29;20114;-89
2023/03/14 04:04:55;;;;;;;15.98;3.70;;;;;;;3.23;100.00;96868.34;4903853;29;20059;-89
2023/03/14 04:07:40;;;;;;;25.33;3.95;;;;;;;3.26;100.00;96877.50;4907833;29;20051;-87
2023/03/14 04:10:24;;;;;;;16.60;3.78;;;;;;;2.90;100.00;96866.53;4908211;29;20175;-88
2023/03/14 04:13:07;;;;;;;18.23;3.85;;;;;;;2.95;100.00;96886.69;4894542;29;20105;-89
2023/03/14 04:15:53;;;;;;;16.13;3.25;;;;;;;2.88;100.00;96906.63;4899665;29;20130;-89
2023/03/14 04:18:40;;;;;;;20.45;3.53;;;;;;;2.82;100.00;96913.38;4887087;29;20047;-89
2023/03/14 04:21:24;;;;;;;21.98;4.72;;;;;;;2.77;100.00;96923.53;4889776;29;20068;-89
2023/03/14 04:24:08;;;;;;;29.75;3.80;;;;;;;2.80;100.00;96962.00;4891499;29;20043;-89
2023/03/14 04:26:52;;;;;;;23.17;4.13;;;;;;;2.71;100.00;96930.31;4917855;29;20044;-89
2023/03/14 04:29:36;;;;;;;27.35;3.83;;;;;;;2.63;100.00;96952.00;4919529;29;20451;-91
2023/03/14 04:32:20;;;;;;;23.98;3.53;;;;;;;2.95;100.00;96965.22;4891322;29;20101;-90
2023/03/14 04:35:05;;;;;;;17.80;3.60;;;;;;;2.75;100.00;96965.19;4890660;29;20196;-88
2023/03/14 04:37:49;;;;;;;25.60;4.45;;;;;;;3.05;100.00;96983.00;4885901;29;20181;-89
2023/03/14 04:40:33;;;;;;;22.60;4.18;;;;;;;3.04;100.00;96999.50;4885292;29;20040;-91
2023/03/14 04:43:17;;;;;;;26.70;3.90;;;;;;;3.17;100.00;97001.34;4893568;29;20044;-89
2023/03/14 04:46:01;;;;;;;18.83;3.80;;;;;;;3.14;100.00;97012.91;4886541;29;20355;-88
2023/03/14 04:48:45;;;;;;;16.58;3.65;;;;;;;2.86;100.00;97033.78;4895625;29;20057;-89
2023/03/14 04:51:28;;;;;;;17.58;3.80;;;;;;;3.04;100.00;97045.38;4887404;29;20124;-88
2023/03/14 04:54:13;;;;;;;18.42;4.05;;;;;;;2.90;100.00;97049.75;4915893;29;20128;-89
2023/03/14 04:56:57;;;;;;;22.33;3.80;;;;;;;3.04;100.00;97055.75;4886951;29;20040;-90
2023/03/14 04:59:41;;;;;;;21.98;4.15;;;;;;;2.83;100.00;97053.09;4891906;29;20518;-88
2023/03/14 05:02:25;;;;;;;21.83;4.55;;;;;;;2.98;100.00;97068.50;4886508;29;20079;-87
2023/03/14 05:05:08;;;;;;;28.10;4.55;;;;;;;3.07;100.00;97082.09;4885676;29;20376;-90
2023/03/14 05:07:52;;;;;;;16.98;3.47;;;;;;;3.08;100.00;97077.69;4919790;29;20097;-87
2023/03/14 05:10:37;;;;;;;14.00;4.28;;;;;;;3.03;100.00;97090.44;4914837;29;20148;-87
2023/03/14 05:13:21;;;;;;;14.05;3.75;;;;;;;2.97;100.00;97092.81;4912980;29;20063;-88
2023/03/14 05:16:08;;;;;;;22.75;4.32;;;;;;;3.21;100.00;97102.84;4917914;29;20047;-87
2023/03/14 05:18:53;;;;;;;29.10;5.57;;;;;;;2.95;100.00;97110.38;4905612;29;20059;-89
2023/03/14 05:21:37;;;;;;;14.27;3.85;;;;;;;2.75;100.00;97131.00;4902340;29;20144;-88
2023/03/14 05:24:22;;;;;;;31.58;4.80;;;;;;;2.81;100.00;97124.25;4890318;29;20051;-87
2023/03/14 05:27:06;;;;;;;20.90;5.38;;;;;;;2.95;100.00;97118.16;4904910;29;20083;-89
2023/03/14 05:29:50;;;;;;;29.10;5.22;;;;;;;2.77;100.00;97131.59;4911928;29;20720;-90
2023/03/14 05:32:34;;;;;;;24.02;4.75;;;;;;;2.81;100.00;97139.78;4907779;29;20065;-90
2023/03/14 05:35:19;;;;;;;35.67;5.30;;;;;;;2.82;100.00;97141.41;4894198;29;20107;-88
2023/03/14 05:38:03;;;;;;;28.50;5.85;;;;;;;2.94;100.00;97152.81;4908211;29;20076;-89
2023/03/14 05:40:47;;;;;;;25.08;4.85;;;;;;;3.08;100.00;97164.06;4907871;29;20047;-90
2023/03/14 05:43:31;;;;;;;29.83;5.15;;;;;;;3.14;100.00;97171.06;4918708;29;20557;-89
2023/03/14 05:46:15;;;;;;;39.22;6.18;;;;;;;2.86;100.00;97181.47;4890188;29;20091;-89
2023/03/14 05:48:59;;;;;;;25.38;4.72;;;;;;;3.04;100.00;97186.16;4892052;29;20061;-89
2023/03/14 05:51:43;;;;;;;22.48;6.55;;;;;;;3.12;100.00;97204.16;4897558;29;20085;-89
2023/03/14 05:54:27;;;;;;;23.30;4.10;;;;;;;3.12;100.00;97219.72;4908164;29;20089;-89
2023/03/14 05:57:11;;;;;;;27.15;5.45;;;;;;;2.68;100.00;97231.19;4920205;29;20075;-89
2023/03/14 05:59:55;;;;;;;31.63;4.63;;;;;;;2.70;100.00;97230.00;4905140;29;20411;-88
2023/03/14 06:02:39;;;;;;;30.83;5.57;;;;;;;2.67;100.00;97243.34;4892636;29;20051;-87
2023/03/14 06:05:23;;;;;;;29.38;4.97;;;;;;;3.06;100.00;97255.94;4914189;29;20419;-87
2023/03/14 06:08:07;;;;;;;30.13;5.65;;;;;;;2.91;100.00;97254.25;4904398;29;20036;-87
2023/03/14 06:10:52;;;;;;;28.83;4.20;;;;;;;2.87;100.00;97253.03;4906951;29;20450;-88
2023/03/14 06:13:36;;;;;;;30.17;4.57;;;;;;;2.75;100.00;97259.72;4906640;29;20408;-88
2023/03/14 06:16:20;;;;;;;28.83;4.38;;;;;;;2.94;100.00;97259.06;4888079;29;20059;-88
2023/03/14 06:19:04;;;;;;;52.17;6.78;;;;;;;3.03;100.00;97264.91;4902366;29;20044;-87
2023/03/14 06:21:48;;;;;;;39.83;6.43;;;;;;;2.84;100.00;97279.34;4893537;29;20569;-88
2023/03/14 06:24:32;;;;;;;20.38;3.92;;;;;;;2.83;100.00;97280.31;4890300;29;20047;-88
2023/03/14 06:27:16;;;;;;;23.88;4.30;;;;;;;2.81;100.00;97290.09;4916287;29;20048;-88
2023/03/14 06:30:01;;;;;;;18.95;3.28;;;;;;;2.71;100.00;97306.72;4910935;29;20104;-88
2023/03/14 06:32:45;;;;;;;39.15;4.95;;;;;;;2.63;100.00;97309.47;4909984;29;20046;-89
2023/03/14 06:35:28;;;;;;;22.80;3.60;;;;;;;2.55;100.00;97332.88;4908938;29;20107;-86
2023/03/14 06:38:13;;;;;;;14.68;3.40;;;;;;;2.51;100.00;97326.47;4924144;29;20127;-88
2023/03/14 06:41:03;;;;;;;25.48;3.85;;;;;;;2.45;100.00;97347.94;4908769;29;20051;-88
2023/03/14 06:43:47;;;;;;;19.42;4.20;;;;;;;2.28;100.00;97345.59;4908907;29;20116;-86
2023/03/14 06:46:31;;;;;;;15.30;3.25;;;;;;;2.33;100.00;97351.00;4909486;29;20055;-88
2023/03/14 06:49:15;;;;;;;26.60;4.50;;;;;;;2.19;100.00;97370.00;4914011;29;20079;-86
2023/03/14 06:51:59;;;;;;;38.10;5.72;;;;;;;2.13;100.00;97372.31;4901498;29;20463;-86
2023/03/14 06:54:44;;;;;;;15.57;3.33;;;;;;;2.21;100.00;97376.56;4911319;29;20063;-88
2023/03/14 06:57:28;;;;;;;18.35;2.70;;;;;;;2.04;100.00;97394.09;4922361;29;20138;-87
2023/03/14 07:00:13;;;;;;;17.25;3.58;;;;;;;2.13;100.00;97405.94;4903623;29;20467;-88
2023/03/14 07:02:57;;;;;;;18.02;3.78;;;;;;;2.35;100.00;97407.81;4917587;29;20448;-89
2023/03/14 07:05:41;;;;;;;17.85;3.35;;;;;;;2.35;100.00;97418.16;4910435;29;20059;-88
2023/03/14 07:08:25;;;;;;;19.67;3.50;;;;;;;2.24;100.00;97422.03;4902929;29;20184;-89
2023/03/14 07:11:10;;;;;;;24.95;3.30;;;;;;;2.14;100.00;97436.03;4910442;29;20043;-87
2023/03/14 07:13:55;;;;;;;25.75;3.22;;;;;;;2.18;100.00;97446.06;4909438;29;20084;-89
2023/03/14 07:16:38;;;;;;;18.15;3.35;;;;;;;2.33;100.00;97454.59;4888571;29;20068;-85
2023/03/14 07:19:22;;;;;;;13.77;2.95;;;;;;;2.26;100.00;97467.47;4915468;29;20514;-86
2023/03/14 07:22:06;;;;;;;26.10;3.30;;;;;;;2.40;100.00;97471.03;4885866;29;20106;-85
2023/03/14 07:24:51;;;;;;;17.80;3.17;;;;;;;2.49;100.00;97478.69;4898225;29;20464;-86
2023/03/14 07:27:35;;;;;;;15.32;3.33;;;;;;;2.53;100.00;97482.50;4901761;29;20043;-85
2023/03/14 07:30:19;;;;;;;21.60;3.78;;;;;;;2.66;100.00;97490.44;4888908;29;20046;-86
2023/03/14 07:33:03;;;;;;;12.43;2.90;;;;;;;2.56;100.00;97511.44;4895203;29;20053;-87
2023/03/14 07:35:49;;;;;;;15.73;3.15;;;;;;;2.70;100.00;97502.03;4890075;29;20048;-88
2023/03/14 07:38:33;;;;;;;16.02;3.03;;;;;;;2.81;100.00;97500.75;4914553;29;20053;-88
2023/03/14 07:41:17;;;;;;;25.30;3.42;;;;;;;2.71;100.00;97511.41;4889002;29;20043;-85
2023/03/14 07:44:01;;;;;;;23.90;2.80;;;;;;;2.75;100.00;97524.81;4889708;29;20055;-88
2023/03/14 07:46:44;;;;;;;13.25;3.08;;;;;;;2.84;100.00;97515.94;4894520;29;20046;-86
2023/03/14 07:49:29;;;;;;;17.88;3.15;;;;;;;2.67;100.00;97527.53;4890461;29;20048;-85
2023/03/14 07:52:13;;;;;;;19.35;3.75;;;;;;;2.89;100.00;97530.97;4916001;29;20407;-89
2023/03/14 07:54:57;;;;;;;12.55;2.83;;;;;;;2.86;100.00;97541.69;4888075;29;20412;-88
2023/03/14 07:57:41;;;;;;;22.58;3.10;;;;;;;3.00;100.00;97546.03;4889053;29;20079;-89
2023/03/14 08:00:25;;;;;;;13.07;2.92;;;;;;;3.04;100.00;97559.44;4909420;29;20107;-88
2023/03/14 08:03:13;;;;;;;15.63;3.45;;;;;;;2.91;100.00;97575.63;4891540;29;20048;-89
2023/03/14 08:05:57;;;;;;;23.83;3.60;;;;;;;3.14;100.00;97579.88;4890092;29;20091;-87
2023/03/14 08:08:41;;;;;;;12.02;3.03;;;;;;;3.19;100.00;97587.13;4895002;29;20055;-88
2023/03/14 08:11:25;;;;;;;20.30;3.15;;;;;;;3.23;100.00;97593.53;4899549;29;20190;-84
2023/03/14 08:14:11;;;;;;;13.85;2.45;;;;;;;3.28;100.00;97610.16;4883401;29;20108;-82
2023/03/14 08:16:56;;;;;;;14.05;2.63;;;;;;;3.47;100.00;97617.56;4906402;29;20068;-83
2023/03/14 08:19:43;;;;;;;8.38;3.00;;;;;;;3.45;100.00;97622.91;4905536;29;20095;-82
2023/03/14 08:22:27;;;;;;;13.35;2.53;;;;;;;3.53;100.00;97620.19;4902530;29;20047;-82
2023/03/14 08:25:11;;;;;;;18.40;2.97;;;;;;;3.49;100.00;97644.91;4905140;29;20043;-83
2023/03/14 08:27:56;;;;;;;22.02;4.53;;;;;;;3.58;100.00;97637.81;4886234;29;20103;-83
2023/03/14 08:30:40;;;;;;;8.63;2.47;;;;;;;4.05;100.00;97632.25;4902130;29;20103;-84
2023/03/14 08:33:25;;;;;;;21.75;3.08;;;;;;;4.18;100.00;97652.34;4907151;29;20051;-86
2023/03/14 08:36:09;;;;;;;23.15;4.10;;;;;;;4.16;100.00;97657.72;4903234;29;20039;-88
2023/03/14 08:38:54;;;;;;;19.48;3.38;;;;;;;4.14;100.00;97678.69;4911961;29;20554;-87
2023/03/14 08:41:40;;;;;;;16.20;2.42;;;;;;;3.92;100.00;97664.06;4908823;29;20104;-89
2023/03/14 08:44:24;;;;;;;12.05;2.63;;;;;;;4.18;100.00;97679.09;4889026;29;20048;-87
2023/03/14 08:47:08;;;;;;;13.95;2.58;;;;;;;4.29;100.00;97677.78;4909397;29;20100;-89
2023/03/14 08:49:52;;;;;;;21.05;2.72;;;;;;;4.14;100.00;97681.28;4904284;29;20140;-88
2023/03/14 08:52:39;;;;;;;14.00;4.38;;;;;;;4.25;100.00;97702.53;4904831;29;20133;-86
2023/03/14 08:55:23;;;;;;;11.05;2.20;;;;;;;4.31;100.00;97704.38;4907659;29;20071;-86
2023/03/14 08:58:08;;;;;;;19.05;2.45;;;;;;;4.01;100.00;97714.91;4907285;29;20092;-88
2023/03/14 09:00:53;;;;;;;15.10;3.05;;;;;;;4.21;100.00;97716.88;4890315;29;20043;-88
2023/03/14 09:03:38;;;;;;;15.13;2.78;;;;;;;4.61;100.00;97713.81;4902679;29;20117;-87
2023/03/14 09:06:24;;;;;;;7.97;2.13;;;;;;;4.82;100.00;97725.97;4903177;29;20047;-88
2023/03/14 09:09:08;;;;;;;9.65;2.17;;;;;;;4.71;100.00;97724.69;4909305;29;20118;-89
2023/03/14 09:11:52;;;;;;;16.80;2.45;;;;;;;4.71;100.00;97729.88;4917693;29;20165;-89
2023/03/14 09:14:36;;;;;;;8.65;2.50;;;;;;;5.00;100.00;97736.69;4905219;29;20046;-83
2023/03/14 09:17:21;;;;;;;19.25;3.25;;;;;;;5.08;100.00;97750.53;4884129;29;20043;-86
2023/03/14 09:20:08;;;;;;;12.88;2.58;;;;;;;5.27;100.00;97752.44;4885302;29;20052;-79
2023/03/14 09:22:52;;;;;;;18.42;2.97;;;;;;;5.13;100.00;97753.38;4881979;29;20060;-79
2023/03/14 09:25:36;;;;;;;14.43;3.00;;;;;;;5.00;100.00;97761.88;4888610;29;20147;-80
2023/03/14 09:28:20;;;;;;;16.55;4.28;;;;;;;5.03;100.00;97776.31;4885809;29;20527;-79
2023/03/14 09:31:09;;;;;;;14.35;4.15;;;;;;;5.31;100.00;97778.09;4882349;29;20111;-79
2023/03/14 09:33:53;;;;;;;9.98;3.70;;;;;;;5.31;100.00;97785.91;4885567;29;20052;-79
2023/03/14 09:36:39;;;;;;;11.65;3.67;;;;;;;5.31;100.00;97791.09;4889142;29;20055;-81
2023/03/14 09:39:23;;;;;;;16.67;4.10;;;;;;;5.12;100.00;97801.97;4881069;29;20107;-79
2023/03/14 09:42:12;;;;;;;16.88;4.25;;;;;;;5.24;100.00;97793.66;4880687;29;20055;-79
2023/03/14 09:45:02;;;;;;;15.35;4.35;;;;;;;5.19;100.00;97789.03;4892373;29;20116;-82
2023/03/14 09:47:47;;;;;;;11.18;3.95;;;;;;;4.83;100.00;97797.75;4889085;29;20399;-85
2023/03/14 09:50:43;;;;;;;15.68;3.90;;;;;;;4.80;100.00;97811.94;4881973;29;20051;-82
2023/03/14 09:53:34;;;;;;;12.88;3.70;;;;;;;4.78;100.00;97823.53;4912329;29;20577;-81
2023/03/14 09:56:26;;;;;;;12.43;3.67;;;;;;;4.52;100.00;97830.06;4882318;29;20083;-85
2023/03/14 09:59:13;;;;;;;13.10;3.78;;;;;;;4.57;100.00;97832.94;4884664;29;20073;-82
2023/03/14 10:02:01;;;;;;;18.65;3.53;;;;;;;4.81;100.00;97829.13;4882226;29;20128;-83
2023/03/14 10:04:47;;;;;;;15.75;3.08;;;;;;;4.77;100.00;97834.91;4893329;29;20096;-81
2023/03/14 10:07:32;;;;;;;16.25;3.67;;;;;;;4.72;100.00;97838.88;4889763;29;20124;-82
2023/03/14 10:10:21;;;;;;;17.73;3.72;;;;;;;4.85;100.00;97847.78;4889293;29;20092;-82
2023/03/14 10:13:21;;;;;;;14.25;2.90;;;;;;;5.04;100.00;97843.75;4888131;29;20044;-83
2023/03/14 10:16:09;;;;;;;17.45;3.05;;;;;;;4.89;100.00;97830.81;4888373;29;20055;-82
2023/03/14 10:19:00;;;;;;;9.95;3.42;;;;;;;5.11;100.00;97843.78;4914470;29;20514;-82
2023/03/14 10:21:54;;;;;;;13.52;2.55;;;;;;;5.20;100.00;97841.84;4893139;29;20092;-83
2023/03/14 10:24:46;;;;;;;16.65;3.60;;;;;;;5.34;100.00;97838.34;4891665;29;20075;-82
2023/03/14 10:27:33;;;;;;;16.30;3.10;;;;;;;5.42;100.00;97847.81;4893312;29;20090;-83
2023/03/14 10:30:33;;;;;;;13.77;2.22;;;;;;;5.78;100.00;97839.00;4893292;29;20142;-83
2023/03/14 10:33:25;;;;;;;10.18;2.60;;;;;;;5.60;100.00;97859.53;4890206;29;20120;-82
2023/03/14 10:36:19;;;;;;;9.52;2.60;;;;;;;5.56;100.00;97866.91;4889678;29;20415;-83
2023/03/14 10:39:43;;;;;;;14.57;2.33;;;;;;;5.63;100.00;97872.97;4884493;29;20563;-82
2023/03/14 10:42:31;;;;;;;13.57;2.23;;;;;;;5.68;100.00;97885.41;4889479;29;21413;-82
2023/03/14 10:45:39;;;;;;;9.20;2.55;;;;;;;5.82;100.00;97876.69;4917330;29;20050;-82
2023/03/14 10:48:35;;;;;;;8.18;2.63;;;;;;;5.75;100.00;97891.47;4921443;29;20048;-83
2023/03/14 10:51:38;;;;;;;10.68;3.00;;;;;;;6.41;100.00;97905.81;4886938;29;21984;-83
2023/03/14 10:54:29;;;;;;;9.65;2.50;;;;;;;6.88;100.00;97907.75;4888015;29;20063;-83
2023/03/14 10:57:13;;;;;;;12.63;2.33;;;;;;;7.21;100.00;97916.63;4887052;29;20043;-83
2023/03/14 10:59:57;;;;;;;12.45;2.90;;;;;;;7.86;99.68;97919.38;4917646;29;20071;-83
2023/03/14 11:02:53;;;;;;;11.13;2.75;;;;;;;8.19;98.06;97925.50;4887691;29;20083;-84
2023/03/14 11:06:15;;;;;;;15.90;4.05;;;;;;;7.71;97.57;97931.84;4917363;29;20052;-82
2023/03/14 11:09:16;;;;;;;14.18;2.60;;;;;;;6.86;96.66;97944.47;4890593;29;20073;-83
2023/03/14 11:12:39;;;;;;;15.13;3.22;;;;;;;6.47;98.37;97945.13;4890557;29;20100;-82
2023/03/14 11:15:49;;;;;;;12.75;3.00;;;;;;;6.16;100.00;97978.47;4891093;29;20071;-83
2023/03/14 11:19:05;;;;;;;9.25;3.25;;;;;;;5.63;100.00;97997.94;4886972;29;20129;-83
2023/03/14 11:21:57;;;;;;;14.38;3.08;;;;;;;5.04;100.00;97993.78;4890353;29;20130;-82
2023/03/14 11:24:52;;;;;;;13.32;3.03;;;;;;;4.70;100.00;97996.81;4893669;29;20059;-81
2023/03/14 11:27:44;;;;;;;8.35;2.58;;;;;;;4.71;100.00;98021.81;4913967;29;20054;-83
2023/03/14 11:30:51;;;;;;;12.98;3.10;;;;;;;4.07;100.00;98036.16;4892155;29;20059;-81
2023/03/14 11:33:39;;;;;;;12.27;2.67;;;;;;;4.01;100.00;98052.47;4887506;29;20052;-80
2023/03/14 11:36:39;;;;;;;10.63;2.95;;;;;;;3.57;100.00;98059.97;4882260;29;20511;-81
2023/03/14 11:39:29;;;;;;;8.85;2.55;;;;;;;3.04;100.00;98061.59;4893414;29;20043;-81
2023/03/14 11:42:16;;;;;;;15.40;3.60;;;;;;;2.99;100.00;98055.13;4914734;29;20048;-83
2023/03/14 11:45:01;;;;;;;11.50;2.70;;;;;;;2.94;100.00;98056.59;4887388;29;20062;-87
2023/03/14 11:47:54;;;;;;;11.93;2.78;;;;;;;3.22;100.00;98037.97;4895674;29;20092;-83
2023/03/14 11:50:42;;;;;;;10.68;2.53;;;;;;;3.38;100.00;98043.06;4885146;29;20091;-82
2023/03/14 11:53:43;;;;;;;6.30;2.28;;;;;;;3.61;100.00;98026.66;4889751;29;20180;-82
2023/03/14 11:56:33;;;;;;;8.45;2.83;;;;;;;3.64;100.00;98033.31;4886783;29;20117;-83
2023/03/14 11:59:24;;;;;;;7.95;1.90;;;;;;;3.80;100.00;98021.97;4885686;29;20542;-81
2023/03/14 12:02:31;;;;;;;7.93;2.35;;;;;;;3.98;100.00;98011.28;4885721;29;20048;-83
2023/03/14 12:05:24;;;;;;;9.23;2.30;;;;;;;4.16;100.00;98010.13;4887067;29;20056;-83
2023/03/14 12:08:09;;;;;;;6.63;2.08;;;;;;;4.22;100.00;98022.41;4888532;29;20044;-83
2023/03/14 12:10:58;;;;;;;5.80;2.28;;;;;;;4.28;100.00;98026.88;4886995;29;20044;-81
2023/03/14 12:13:47;;;;;;;5.22;2.47;;;;;;;4.29;100.00;98028.47;4885362;29;20109;-82
2023/03/14 12:16:37;;;;;;;9.13;1.67;;;;;;;4.43;100.00;98032.09;4892030;29;20537;-83
2023/03/14 12:19:28;;;;;;;2.17;1.30;;;;;;;4.45;100.00;98031.91;4904590;29;20056;-82
2023/03/14 12:22:34;;;;;;;5.85;2.85;;;;;;;4.76;100.00;98028.28;4905595;29;20047;-84
2023/03/14 12:25:24;;;;;;;4.82;1.42;;;;;;;4.90;100.00;98035.25;4908141;29;20047;-82
2023/03/14 12:28:20;;;;;;;6.82;1.50;;;;;;;4.81;100.00;98037.13;4901853;29;20071;-83
2023/03/14 12:31:32;;;;;;;5.15;1.52;;;;;;;5.09;100.00;98033.88;4904051;29;20241;-82
2023/03/14 12:34:16;;;;;;;5.25;1.63;;;;;;;5.10;100.00;98034.66;4905025;29;20128;-85
2023/03/14 12:37:10;;;;;;;6.15;1.75;;;;;;;5.45;100.00;98036.63;4905569;29;20100;-82
2023/03/14 12:40:25;;;;;;;9.68;2.10;;;;;;;5.34;100.00;98051.72;4903284;29;20157;-85
2023/03/14 12:43:33;;;;;;;6.35;1.70;;;;;;;5.16;100.00;98065.16;4908453;29;20084;-83
2023/03/14 12:46:17;;;;;;;10.70;2.22;;;;;;;5.10;100.00;98069.28;4903829;29;20139;-83
2023/03/14 12:49:08;;;;;;;11.05;2.13;;;;;;;5.28;100.00;98055.06;4902658;29;20047;-84
2023/03/14 12:52:02;;;;;;;5.35;1.95;;;;;;;5.33;100.00;98059.72;4908199;29;20071;-84